Terminal Aerodrome Forecast
Issued by NWS Houston/Galveston, TX

Home | Current Version | Previous Version | Text Only | Print | Product List | Glossary On
Versions: 1 2 3 4 5 6 7 8 9 10 11 12 13 14 15 16 17 18 19 20 21 22 23 24 25 26 27 28 29 30 31 32 33 34 35 36 37 38 39 40 41
000
FTUS44 KHGX 191126
TAFGLS
TAF
KGLS 191126Z 1912/2012 12007KT 3SM TSRA BKN015CB BKN035
     FM191400 12006KT P6SM VCTS FEW007 BKN020CB BKN035
     FM192000 11008KT P6SM VCSH SCT020 BKN050
     FM200000 10006KT P6SM SCT015 SCT030 BKN100=

USA.gov is the U.S. government's official web portal to all federal, state and local government web resources and services.